Springdale, Maryland
Current Conditions -  °F | °C
As of 3:58 AM on Friday 24 Oct 2014 (Local Time) from KADW Reporting Station
Clear Clear  
Wind Chill: 55°   Ceiling: Unl
Heat Index: 55°   Visibility: 10mi
Dew Point: 41°   Wind: 12mph
Humidity: 61%   Direction: 310°NW
Pressure: 29.91"   Gusts: NA
Location:  38.8741°N, 76.7678°W
Report Text: KADW 240758Z AUTO 31010KT 10SM CLR 13/05 A2991 RMK AO2 SLP135 T01260052 $
Loading
Personal Weather Stations






























Interactive Weather Map
Tropical Storm Tracking
New forecast layout! Learn more

10-Day Weather Forecast

Advertisements
Track Severe Weather on mobile